Ouaquaga, NY (13826)

12:10 PM EDT die 24o August, anno 2016 (GMT -0400)
North Road | | Change Station

Elev 1496 ft 42.12 °N, 75.75 °W | Updated 19 seconds ago

Clear
Serena
79.2 °F
Feels Like 81 °F
N
0.9
Ventus Variabilis Ventus from Magis Eurus quam Auster
Gusts 2.5 mph

Hodie
High -- | Low -- °F
--% Chance of Precip.
Yesterday
High -- | Low -- °F
Precip. -- in
Pressio 30.25 in
Visibilitas 10.0 milia passuum
Clouds Serena
Index Caloris 81 °F
Frigus in quo Ros apparet 62 °F
Umor 56%
Rainfall 0.00 in
Snow Depth Not available.
6:20 AM 7:48 PM
Waning Gibbous, 56% visible
METAR KBGM 241553Z VRB05KT 10SM CLR 24/17 A3028 RMK AO2 SLP244 T02440167
Pressio 30.25 in
Visibilitas 10.0 milia passuum
Clouds Serena
Index Caloris 81 °F
Frigus in quo Ros apparet 62 °F
Umor 56%
Rainfall 0.00 in
Snow Depth Not available.
6:20 AM 7:48 PM
Waning Gibbous, 56% visible
METAR KBGM 241553Z VRB05KT 10SM CLR 24/17 A3028 RMK AO2 SLP244 T02440167

10-Day Weather Forecast

Almanac

Astronomy

Aug. 24, 2016 Rise Set
Actual Time
Civil Twilight
Nautical Twilight
Astronomical Twilight
Moon
Length Of Visible Light
Length of Day
Tomorrow will be .
, % of the Moon is Illuminated

Today's Extremes

State Highs State Lows

Community

WunderPhotos

Upload Photos

1,934,637 photos uploaded!

WunderBlog® & News

Nearby

Air Quality

  Air Quality AQ Index Pollutant
Not available.

Snow Depth

Station Depth Elevation

Earthquake Activity

City Distance Mag. Time & Date
Minimum magnitude displayed is 2.5.

Coastal Water Temperatures

Locus Calor

Stations

Nearby Weather Stations

Station Location Temp Frigus Venti Frigus in quo Ros apparet Umor Ventus Precip. Elev Renovata Type
                   

Watches & Warnings

There are currently no watches in effect.